createdAt,value
2022-11-10T00:02:10.609Z,9.70
2022-11-10T00:04:58.074Z,9.45
2022-11-10T00:07:45.727Z,10.23
2022-11-10T00:10:33.586Z,7.80
2022-11-10T00:13:21.287Z,7.22
2022-11-10T00:16:29.294Z,9.03
2022-11-10T00:19:17.191Z,9.93
2022-11-10T00:22:04.555Z,7.92
2022-11-10T00:24:51.944Z,6.65
2022-11-10T00:27:39.701Z,7.42
2022-11-10T00:30:27.839Z,8.88
2022-11-10T00:33:14.924Z,7.65
2022-11-10T00:36:02.744Z,7.03
2022-11-10T00:38:52.786Z,8.90
2022-11-10T00:41:40.469Z,10.03
2022-11-10T00:44:28.077Z,7.33
2022-11-10T00:47:15.496Z,10.13
2022-11-10T00:50:03.237Z,8.35
2022-11-10T00:52:50.834Z,8.20
2022-11-10T00:55:42.377Z,9.13
2022-11-10T00:58:29.849Z,9.60
2022-11-10T01:01:19.431Z,10.75
2022-11-10T01:04:07.045Z,8.20
2022-11-10T01:06:54.470Z,6.83
2022-11-10T01:09:42.246Z,6.30
2022-11-10T01:12:33.188Z,5.70
2022-11-10T01:15:27.039Z,6.85
2022-11-10T01:18:10.458Z,7.22
2022-11-10T01:20:57.813Z,7.95
2022-11-10T01:23:45.871Z,7.47
2022-11-10T01:26:33.442Z,7.60
2022-11-10T01:29:21.004Z,11.43
2022-11-10T01:32:08.637Z,6.87
2022-11-10T01:34:57.411Z,6.42
2022-11-10T01:37:45.849Z,8.58
2022-11-10T01:40:33.367Z,7.17
2022-11-10T01:43:21.413Z,8.25
2022-11-10T01:46:11.567Z,7.75
2022-11-10T01:49:02.260Z,7.83
2022-11-10T01:51:58.245Z,9.10
2022-11-10T01:54:48.550Z,8.60
2022-11-10T01:57:37.957Z,8.15
2022-11-10T02:00:27.925Z,7.15
2022-11-10T02:03:18.104Z,7.22
2022-11-10T02:06:07.807Z,8.70
2022-11-10T02:08:57.727Z,6.72
2022-11-10T02:11:46.484Z,5.95
2022-11-10T02:14:34.212Z,6.87
2022-11-10T02:17:21.554Z,8.40
2022-11-10T02:20:12.684Z,4.85
2022-11-10T02:23:00.466Z,6.97
2022-11-10T02:25:48.099Z,8.13
2022-11-10T02:28:38.234Z,8.03
2022-11-10T02:31:25.532Z,8.63
2022-11-10T02:34:13.286Z,8.80
2022-11-10T02:37:00.819Z,6.90
2022-11-10T02:39:48.257Z,9.73
2022-11-10T02:42:35.670Z,5.75
2022-11-10T02:45:23.155Z,5.30
2022-11-10T02:48:11.131Z,6.50
2022-11-10T02:50:58.470Z,6.62
2022-11-10T02:53:46.116Z,7.27
2022-11-10T02:56:35.647Z,7.33
2022-11-10T02:59:23.271Z,7.35
2022-11-10T03:02:10.978Z,8.65
2022-11-10T03:04:58.505Z,6.72
2022-11-10T03:07:46.248Z,5.83
2022-11-10T03:10:33.775Z,8.63
2022-11-10T03:13:21.580Z,6.08
2022-11-10T03:16:09.032Z,7.17
2022-11-10T03:18:56.519Z,9.53
2022-11-10T03:21:44.126Z,7.05
2022-11-10T03:25:39.663Z,7.45
2022-11-10T03:28:27.238Z,7.15
2022-11-10T03:31:14.980Z,6.83
2022-11-10T03:34:02.323Z,7.12
2022-11-10T03:36:49.741Z,6.15
2022-11-10T03:39:37.383Z,8.48
2022-11-10T03:42:25.186Z,7.75
2022-11-10T03:45:14.526Z,8.48
2022-11-10T03:48:02.066Z,7.78
2022-11-10T03:50:49.176Z,9.83
2022-11-10T03:53:36.702Z,8.90
2022-11-10T03:56:24.015Z,7.90
2022-11-10T03:59:11.524Z,6.47
2022-11-10T04:01:59.197Z,6.22
2022-11-10T04:05:04.778Z,12.70
2022-11-10T04:08:20.885Z,6.25
2022-11-10T04:11:08.281Z,6.33
2022-11-10T04:14:13.180Z,6.40
2022-11-10T04:17:01.708Z,6.87
2022-11-10T04:19:49.268Z,9.90
2022-11-10T04:22:54.313Z,8.73
2022-11-10T04:25:43.511Z,5.65
2022-11-10T04:28:31.237Z,5.45
2022-11-10T04:31:21.164Z,5.78
2022-11-10T04:34:16.312Z,8.40
2022-11-10T04:37:03.877Z,6.25
2022-11-10T04:39:51.394Z,7.42
2022-11-10T04:42:40.756Z,6.17
2022-11-10T04:45:28.213Z,8.25
2022-11-10T04:48:15.267Z,9.05
2022-11-10T04:51:08.042Z,7.55
2022-11-10T04:56:42.664Z,7.47
2022-11-10T04:59:30.432Z,7.22
2022-11-10T05:02:18.086Z,6.62
2022-11-10T05:13:26.303Z,6.25
2022-11-10T05:16:14.259Z,7.03
2022-11-10T05:19:02.036Z,10.95
2022-11-10T05:21:49.519Z,5.33
2022-11-10T05:24:37.091Z,9.88
2022-11-10T05:27:24.267Z,5.97
2022-11-10T05:30:12.197Z,9.85
2022-11-10T05:33:00.367Z,9.90
2022-11-10T05:35:52.417Z,10.13
2022-11-10T05:38:43.433Z,6.92
2022-11-10T05:41:29.016Z,10.13
2022-11-10T05:44:16.812Z,7.62
2022-11-10T05:47:04.354Z,7.17
2022-11-10T05:49:51.776Z,8.13
2022-11-10T05:52:50.904Z,6.47
2022-11-10T05:55:38.741Z,5.97
2022-11-10T05:58:26.204Z,8.13
2022-11-10T06:01:13.989Z,6.50
2022-11-10T06:04:01.426Z,5.15
2022-11-10T06:09:36.786Z,4.72
2022-11-10T06:12:25.283Z,5.92
2022-11-10T06:15:14.115Z,10.03
2022-11-10T06:18:01.328Z,4.20
2022-11-10T06:20:49.588Z,4.83
2022-11-10T06:23:39.109Z,8.00
2022-11-10T06:26:26.597Z,7.25
2022-11-10T06:29:14.391Z,6.67
2022-11-10T06:32:01.939Z,9.50
2022-11-10T06:34:50.827Z,6.47
2022-11-10T06:37:41.407Z,5.87
2022-11-10T06:40:29.367Z,14.35
2022-11-10T06:43:16.657Z,6.10
2022-11-10T06:46:04.047Z,9.55
2022-11-10T06:48:51.852Z,5.22
2022-11-10T06:51:39.203Z,11.05
2022-11-10T06:54:26.618Z,7.05
2022-11-10T07:05:36.728Z,7.65
2022-11-10T07:08:23.955Z,8.30
2022-11-10T07:11:11.550Z,11.95
2022-11-10T07:13:58.953Z,10.88
2022-11-10T07:16:48.306Z,11.03
2022-11-10T07:22:23.552Z,8.00
2022-11-10T07:25:11.624Z,9.55
2022-11-10T07:28:00.992Z,13.25
2022-11-10T07:30:48.308Z,15.65
2022-11-10T07:33:35.902Z,14.83
2022-11-10T07:36:23.360Z,13.00
2022-11-10T07:39:12.687Z,12.98
2022-11-10T07:42:00.249Z,11.87
2022-11-10T07:44:47.550Z,9.40
2022-11-10T07:47:34.871Z,8.10
2022-11-10T07:50:22.080Z,15.53
2022-11-10T07:53:15.113Z,8.43
2022-11-10T07:56:02.340Z,12.13
2022-11-10T07:58:49.956Z,9.80
2022-11-10T08:01:37.323Z,13.43
2022-11-10T08:04:25.058Z,12.07
2022-11-10T08:07:12.855Z,13.75
2022-11-10T08:10:00.222Z,11.93
2022-11-10T08:12:49.066Z,13.28
2022-11-10T08:15:36.949Z,11.13
2022-11-10T08:18:26.825Z,11.23
2022-11-10T08:35:09.095Z,15.65
2022-11-10T08:37:57.125Z,13.60
2022-11-10T08:40:46.343Z,14.33
2022-11-10T08:43:33.771Z,17.62
2022-11-10T08:46:21.489Z,12.47
2022-11-10T08:49:08.917Z,16.00
2022-11-10T08:51:56.378Z,14.30
2022-11-10T08:54:43.872Z,12.15
2022-11-10T08:57:32.341Z,9.83
2022-11-10T09:00:20.455Z,11.28
2022-11-10T09:03:11.067Z,15.83
2022-11-10T09:06:01.216Z,10.72
2022-11-10T09:08:48.772Z,6.40
2022-11-10T09:11:36.389Z,8.28
2022-11-10T09:14:23.658Z,11.63
2022-11-10T09:17:10.952Z,9.25
2022-11-10T09:19:58.612Z,8.85
2022-11-10T09:22:46.228Z,6.97
2022-11-10T09:25:34.827Z,9.53
2022-11-10T09:28:23.835Z,7.12
2022-11-10T09:31:11.176Z,11.55
2022-11-10T09:33:59.670Z,10.68
2022-11-10T09:36:47.508Z,5.67
2022-11-10T09:39:34.808Z,6.40
2022-11-10T09:42:40.028Z,12.30
2022-11-10T09:45:38.704Z,10.45
2022-11-10T09:48:34.613Z,11.35
2022-11-10T09:51:27.441Z,13.88
2022-11-10T09:54:39.031Z,18.27
2022-11-10T09:57:27.848Z,15.00
2022-11-10T10:00:19.381Z,16.20
2022-11-10T10:03:09.458Z,11.80
2022-11-10T10:06:02.649Z,22.58
2022-11-10T10:09:02.692Z,27.15
2022-11-10T10:11:56.769Z,23.60
2022-11-10T10:15:05.437Z,26.65
2022-11-10T10:18:01.690Z,27.27
2022-11-10T10:21:13.387Z,28.25
2022-11-10T10:24:15.207Z,26.87
2022-11-10T10:26:58.494Z,25.10
2022-11-10T10:29:49.382Z,27.22
2022-11-10T10:32:36.868Z,27.45
2022-11-10T10:35:24.737Z,25.52
2022-11-10T10:38:15.211Z,18.27
2022-11-10T10:41:05.854Z,16.77
2022-11-10T10:43:59.769Z,22.42
2022-11-10T10:46:53.465Z,18.77
2022-11-10T10:49:41.047Z,14.55
2022-11-10T10:52:28.310Z,19.23
2022-11-10T10:55:16.014Z,15.98
2022-11-10T10:58:23.823Z,17.10
2022-11-10T11:01:20.671Z,16.02
2022-11-10T11:04:19.988Z,14.58
2022-11-10T11:07:09.948Z,16.60
2022-11-10T11:09:57.145Z,21.85
2022-11-10T11:12:44.520Z,18.23
2022-11-10T11:15:32.087Z,18.20
2022-11-10T11:18:21.028Z,16.57
2022-11-10T11:21:24.224Z,14.70
2022-11-10T11:24:20.624Z,16.57
2022-11-10T11:27:20.209Z,15.58
2022-11-10T11:30:17.818Z,14.70
2022-11-10T11:33:20.535Z,17.15
2022-11-10T11:36:30.597Z,12.65
2022-11-10T11:39:21.100Z,14.63
2022-11-10T11:42:34.169Z,12.43
2022-11-10T11:45:27.039Z,13.62
2022-11-10T11:48:38.171Z,10.48
2022-11-10T11:51:37.016Z,13.22
2022-11-10T11:54:29.873Z,14.23
2022-11-10T11:57:35.814Z,14.13
2022-11-10T12:00:22.180Z,14.13
2022-11-10T12:03:18.614Z,13.70
2022-11-10T12:06:37.837Z,15.58
2022-11-10T12:09:43.969Z,12.58
2022-11-10T12:12:57.304Z,14.33
2022-11-10T12:15:53.794Z,11.63
2022-11-10T12:18:51.119Z,13.22
2022-11-10T12:21:57.931Z,13.60
2022-11-10T12:25:05.837Z,12.45
2022-11-10T12:27:56.207Z,12.70
2022-11-10T12:30:46.397Z,18.32
2022-11-10T12:33:45.979Z,18.75
2022-11-10T12:36:34.563Z,13.30
2022-11-10T12:39:28.147Z,10.98
2022-11-10T12:42:18.671Z,11.28
2022-11-10T12:45:20.816Z,12.68
2022-11-10T12:48:11.299Z,13.10
2022-11-10T12:51:27.975Z,14.70
2022-11-10T12:54:18.768Z,14.73
2022-11-10T12:57:09.535Z,16.87
2022-11-10T13:00:12.810Z,11.85
2022-11-10T13:03:00.255Z,16.05
2022-11-10T13:05:50.688Z,13.72
2022-11-10T13:08:43.595Z,16.45
2022-11-10T13:11:36.653Z,12.25
2022-11-10T13:14:27.327Z,17.52
2022-11-10T13:17:30.161Z,14.15
2022-11-10T13:20:49.351Z,12.33
2022-11-10T13:23:48.877Z,13.70
2022-11-10T13:26:46.045Z,14.87
2022-11-10T13:29:37.077Z,13.90
2022-11-10T13:32:30.326Z,11.43
2022-11-10T13:35:32.802Z,11.57
2022-11-10T13:38:41.501Z,9.60
2022-11-10T14:53:10.646Z,12.28
2022-11-10T14:56:00.376Z,10.28
2022-11-10T14:58:50.088Z,12.13
2022-11-10T15:01:44.161Z,11.68
2022-11-10T15:04:34.299Z,11.60
2022-11-10T15:07:23.257Z,10.28
2022-11-10T15:10:23.184Z,11.78
2022-11-10T15:13:17.500Z,6.03
2022-11-10T15:16:30.808Z,8.00
2022-11-10T15:19:27.376Z,11.40
2022-11-10T15:22:23.898Z,7.20
2022-11-10T15:25:16.793Z,7.53
2022-11-10T15:28:07.364Z,8.80
2022-11-10T15:31:06.896Z,10.53
2022-11-10T15:33:57.163Z,10.32
2022-11-10T15:36:44.903Z,14.10
2022-11-10T15:39:32.327Z,9.25
2022-11-10T15:42:22.464Z,9.33
2022-11-10T15:45:10.689Z,8.38
2022-11-10T15:47:58.579Z,9.28
2022-11-10T15:50:49.186Z,6.42
2022-11-10T15:53:40.325Z,8.25
2022-11-10T15:56:27.371Z,12.13
2022-11-10T15:59:15.848Z,13.03
2022-11-10T16:02:05.237Z,8.28
2022-11-10T16:04:59.577Z,7.42
2022-11-10T16:07:44.618Z,14.33
2022-11-10T16:10:32.153Z,10.15
2022-11-10T16:13:29.099Z,9.88
2022-11-10T16:16:22.431Z,12.70
2022-11-10T16:19:13.854Z,7.58
2022-11-10T16:22:01.593Z,16.03
2022-11-10T16:24:49.428Z,8.30
2022-11-10T16:27:38.835Z,13.10
2022-11-10T16:30:26.301Z,6.92
2022-11-10T16:33:17.061Z,10.93
2022-11-10T16:36:05.479Z,11.20
2022-11-10T16:38:54.201Z,8.00
2022-11-10T16:41:42.436Z,10.70
2022-11-10T16:44:29.500Z,10.10
2022-11-10T16:47:20.507Z,9.20
2022-11-10T16:50:11.386Z,17.17
2022-11-10T16:52:59.333Z,9.33
2022-11-10T16:55:46.947Z,5.58
2022-11-10T16:58:34.378Z,11.97
2022-11-10T17:01:24.996Z,12.85
2022-11-10T17:04:14.517Z,12.88
2022-11-10T17:07:02.284Z,9.30
2022-11-10T17:09:49.594Z,12.10
2022-11-10T17:12:36.972Z,8.18
2022-11-10T17:15:25.418Z,11.48
2022-11-10T17:18:15.988Z,14.50
2022-11-10T17:21:05.281Z,10.68
2022-11-10T17:23:53.075Z,14.75
2022-11-10T17:26:40.999Z,14.07
2022-11-10T17:29:29.362Z,12.17
2022-11-10T17:32:16.729Z,10.55
2022-11-10T17:35:04.519Z,14.55
2022-11-10T17:37:56.022Z,10.80
2022-11-10T17:40:44.144Z,12.80
2022-11-10T17:43:31.879Z,14.27
2022-11-10T17:46:19.510Z,25.40
2022-11-10T17:49:06.889Z,24.00
2022-11-10T17:51:54.595Z,23.83
2022-11-10T17:54:42.342Z,20.17
2022-11-10T17:57:29.919Z,12.43
2022-11-10T18:00:19.848Z,14.25
2022-11-10T18:03:08.855Z,11.53
2022-11-10T18:05:56.385Z,13.95
2022-11-10T18:08:45.827Z,10.48
2022-11-10T18:11:33.063Z,12.20
2022-11-10T18:14:20.385Z,18.50
2022-11-10T18:17:08.023Z,19.42
2022-11-10T18:19:55.732Z,15.05
2022-11-10T18:22:43.898Z,16.40
2022-11-10T18:25:31.471Z,16.05
2022-11-10T18:28:19.415Z,16.75
2022-11-10T18:31:09.757Z,22.10
2022-11-10T18:33:57.364Z,21.07
2022-11-10T18:36:44.759Z,21.73
2022-11-10T18:39:32.651Z,24.87
2022-11-10T18:42:20.115Z,25.07
2022-11-10T18:45:08.992Z,22.65
2022-11-10T18:47:59.391Z,31.52
2022-11-10T18:50:46.926Z,61.48
2022-11-10T18:53:38.224Z,36.08
2022-11-10T18:56:24.266Z,36.63
2022-11-10T18:59:11.538Z,34.25
2022-11-10T19:01:58.965Z,27.40
2022-11-10T19:04:49.661Z,23.85
2022-11-10T19:07:35.692Z,30.85
2022-11-10T19:10:22.796Z,31.27
2022-11-10T19:13:10.323Z,29.00
2022-11-10T19:16:00.032Z,39.48
2022-11-10T19:18:48.439Z,42.88
2022-11-10T19:21:36.230Z,41.90
2022-11-10T19:24:27.959Z,44.77
2022-11-10T19:27:14.765Z,45.17
2022-11-10T19:30:02.561Z,44.30
2022-11-10T19:32:49.803Z,48.63
2022-11-10T19:35:42.951Z,53.90
2022-11-10T19:38:30.397Z,61.55
2022-11-10T19:41:29.311Z,75.50
2022-11-10T19:44:16.451Z,59.23
2022-11-10T19:47:03.775Z,53.55
2022-11-10T19:49:51.091Z,54.03
2022-11-10T19:52:38.619Z,72.00
2022-11-10T19:55:26.133Z,67.53
2022-11-10T19:58:14.860Z,77.32
2022-11-10T20:01:02.260Z,80.95
2022-11-10T20:03:49.941Z,75.52
2022-11-10T20:06:37.514Z,72.92
2022-11-10T20:09:25.276Z,96.82
2022-11-10T20:12:12.694Z,134.20
2022-11-10T20:15:01.025Z,108.80
2022-11-10T20:17:48.437Z,104.07
2022-11-10T20:20:37.861Z,92.50
2022-11-10T20:23:26.205Z,91.50
2022-11-10T20:26:15.993Z,86.17
2022-11-10T20:29:03.312Z,85.92
2022-11-10T20:31:50.920Z,81.78
2022-11-10T20:34:38.430Z,82.80
2022-11-10T20:37:26.140Z,79.12
2022-11-10T20:40:42.496Z,81.00
2022-11-10T20:43:03.032Z,78.52
2022-11-10T20:46:13.736Z,76.35
2022-11-10T20:49:00.462Z,82.00
2022-11-10T20:51:48.313Z,88.58
2022-11-10T20:54:35.834Z,81.55
2022-11-10T20:57:23.415Z,82.22
2022-11-10T21:00:12.195Z,77.12
2022-11-10T21:02:59.912Z,78.50
2022-11-10T21:05:47.884Z,66.55
2022-11-10T21:08:37.068Z,61.95
2022-11-10T21:11:42.442Z,64.25
2022-11-10T21:14:29.932Z,55.85
2022-11-10T21:17:18.244Z,60.73
2022-11-10T21:20:06.041Z,55.92
2022-11-10T21:22:53.661Z,49.90
2022-11-10T21:25:41.465Z,46.98
2022-11-10T21:28:29.663Z,54.42
2022-11-10T21:31:18.853Z,51.05
2022-11-10T21:34:06.543Z,51.37
2022-11-10T21:36:53.778Z,44.58
2022-11-10T21:39:42.911Z,46.48
2022-11-10T21:42:35.166Z,51.30
2022-11-10T21:45:18.875Z,51.30
2022-11-10T21:48:07.102Z,50.55
2022-11-10T21:50:56.211Z,56.48
2022-11-10T21:53:43.772Z,52.75
2022-11-10T21:56:31.286Z,51.13
2022-11-10T21:59:20.252Z,47.43
2022-11-10T22:02:09.451Z,49.27
2022-11-10T22:04:56.707Z,52.25
2022-11-10T22:07:44.220Z,61.40
2022-11-10T22:10:49.377Z,61.88
2022-11-10T22:13:54.676Z,55.52
2022-11-10T22:17:09.332Z,55.95
2022-11-10T22:19:56.641Z,53.83
2022-11-10T22:22:44.270Z,45.92
2022-11-10T22:25:31.615Z,56.18
2022-11-10T22:28:20.772Z,48.50
2022-11-10T22:31:11.369Z,49.00
2022-11-10T22:33:58.672Z,41.25
2022-11-10T22:36:49.246Z,47.80
2022-11-10T22:39:54.687Z,43.15
2022-11-10T22:42:59.765Z,41.08
2022-11-10T22:45:47.400Z,39.33
2022-11-10T22:48:35.103Z,36.53
2022-11-10T22:51:23.031Z,39.65
2022-11-10T22:54:15.898Z,34.63
2022-11-10T22:57:03.635Z,35.58
2022-11-10T22:59:51.386Z,28.65
2022-11-10T23:02:39.081Z,30.30
2022-11-10T23:05:26.745Z,29.93
2022-11-10T23:08:14.083Z,31.10
2022-11-10T23:11:10.275Z,28.45
2022-11-10T23:13:58.749Z,29.32
2022-11-10T23:16:46.383Z,27.17
2022-11-10T23:19:34.012Z,26.12
2022-11-10T23:22:21.603Z,27.98
2022-11-10T23:25:09.107Z,25.32
2022-11-10T23:27:58.557Z,33.02
2022-11-10T23:30:45.965Z,26.00
2022-11-10T23:33:34.985Z,29.15
2022-11-10T23:36:24.867Z,27.70
2022-11-10T23:39:13.846Z,31.90
2022-11-10T23:42:01.458Z,26.20
2022-11-10T23:44:49.167Z,32.13
2022-11-10T23:47:36.712Z,26.95
2022-11-10T23:50:24.079Z,33.05
2022-11-10T23:53:11.480Z,28.42
2022-11-10T23:56:01.213Z,26.73
2022-11-10T23:58:48.687Z,23.87
